Time;durP1;ratioP1;P1;durP2;ratioP2;P2;SDS_P1;SDS_P2;PMS_P1;PMS_P2;Temp;Humidity;BMP_temperature;BMP_pressure;BME280_temperature;BME280_humidity;BME280_pressure;Samples;Min_cycle;Max_cycle;Signal;HPM_P1;HPM_P2
2022/05/13 00:01:23;;;;;;;1.33;1.23;;;14.20;99.90;;;;;;5124795;28;20445;-63
2022/05/13 00:03:54;;;;;;;4.50;1.50;;;14.30;99.90;;;;;;5138120;27;20448;-62
2022/05/13 00:06:26;;;;;;;3.40;1.50;;;14.40;99.90;;;;;;5135326;27;20430;-63
2022/05/13 00:08:57;;;;;;;1.57;1.47;;;14.70;99.90;;;;;;5114805;28;20453;-62
2022/05/13 00:11:28;;;;;;;2.00;1.53;;;14.80;99.90;;;;;;5125139;27;20450;-62
2022/05/13 00:13:59;;;;;;;1.90;1.70;;;14.50;99.90;;;;;;5135945;27;20455;-63
2022/05/13 00:16:30;;;;;;;2.37;1.80;;;14.60;99.90;;;;;;5130630;27;20488;-63
2022/05/13 00:19:01;;;;;;;1.80;1.70;;;14.50;99.90;;;;;;5124303;27;20481;-62
2022/05/13 00:21:33;;;;;;;2.37;2.17;;;14.30;99.90;;;;;;5127650;27;20520;-63
2022/05/13 00:24:04;;;;;;;1.63;1.40;;;14.40;99.90;;;;;;5135936;27;20453;-63
2022/05/13 00:26:35;;;;;;;2.07;1.80;;;14.50;99.90;;;;;;5117612;28;20807;-62
2022/05/13 00:29:06;;;;;;;2.00;1.83;;;14.50;99.90;;;;;;5134638;27;20452;-62
2022/05/13 00:31:38;;;;;;;2.40;2.20;;;14.20;99.90;;;;;;5135682;27;20464;-62
2022/05/13 00:34:09;;;;;;;5.27;2.60;;;14.30;99.90;;;;;;5136563;27;20453;-62
2022/05/13 00:36:42;;;;;;;3.20;2.33;;;13.80;99.90;;;;;;5130672;27;20479;-64
2022/05/13 00:39:13;;;;;;;3.00;2.70;;;13.80;99.90;;;;;;5138967;27;20441;-62
2022/05/13 00:41:45;;;;;;;4.07;2.70;;;14.00;99.90;;;;;;5140052;27;20449;-63
2022/05/13 00:44:16;;;;;;;5.93;2.90;;;14.00;99.90;;;;;;5122814;27;20450;-64
2022/05/13 00:46:48;;;;;;;4.43;2.70;;;13.60;99.90;;;;;;5123607;27;20450;-63
2022/05/13 00:49:19;;;;;;;3.40;2.77;;;13.60;99.90;;;;;;5139169;27;20478;-62
2022/05/13 00:51:51;;;;;;;5.60;3.53;;;13.60;99.90;;;;;;5143963;27;20452;-61
2022/05/13 00:54:23;;;;;;;3.27;3.00;;;13.50;99.90;;;;;;5127948;27;20454;-61
2022/05/13 00:56:53;;;;;;;5.27;2.70;;;13.50;99.90;;;;;;5123525;27;20488;-61
2022/05/13 00:59:28;;;;;;;4.80;3.20;;;13.40;99.90;;;;;;5123149;27;20454;-64
2022/05/13 01:01:59;;;;;;;5.40;2.83;;;13.40;99.90;;;;;;5143425;27;20467;-63
2022/05/13 01:04:32;;;;;;;4.87;3.07;;;13.30;99.90;;;;;;5120891;27;20487;-61
2022/05/13 01:07:13;;;;;;;4.50;3.47;;;13.40;99.90;;;;;;5120438;27;20463;-63
2022/05/13 01:09:48;;;;;;;3.53;3.23;;;13.40;99.90;;;;;;5126325;27;20441;-62
2022/05/13 01:12:23;;;;;;;5.23;3.10;;;13.40;99.90;;;;;;5123255;28;20491;-62
2022/05/13 01:14:57;;;;;;;5.13;3.07;;;13.20;99.90;;;;;;5133629;27;20458;-64
2022/05/13 01:20:20;;;;;;;4.23;3.17;;;13.20;99.90;;;;;;5127284;27;20962;-66
2022/05/13 01:22:54;;;;;;;4.30;3.10;;;12.80;99.90;;;;;;5123616;27;20568;-65
2022/05/13 01:25:28;;;;;;;4.00;2.40;;;12.80;99.90;;;;;;5124575;27;20438;-66
2022/05/13 01:28:06;;;;;;;4.23;3.30;;;12.70;99.90;;;;;;5130526;27;20471;-65
2022/05/13 01:30:40;;;;;;;4.87;2.90;;;12.50;99.90;;;;;;5136765;27;20470;-63
2022/05/13 01:33:11;;;;;;;5.67;3.73;;;12.30;99.90;;;;;;5131226;27;20457;-63
2022/05/13 01:35:45;;;;;;;5.20;2.70;;;12.10;99.90;;;;;;5115240;28;20457;-64
2022/05/13 01:38:20;;;;;;;4.40;3.07;;;12.10;99.90;;;;;;5121778;28;20499;-64
2022/05/13 01:40:51;;;;;;;4.90;3.23;;;12.00;99.90;;;;;;5123817;27;20911;-64
2022/05/13 01:43:22;;;;;;;3.67;3.07;;;12.00;99.90;;;;;;5117205;28;20461;-62
2022/05/13 01:45:53;;;;;;;5.77;2.73;;;11.80;99.90;;;;;;5133916;27;20445;-62
2022/05/13 01:48:25;;;;;;;3.50;2.67;;;11.70;99.90;;;;;;5123086;27;20796;-62
2022/05/13 01:50:56;;;;;;;3.00;2.70;;;11.70;99.90;;;;;;5134230;27;20522;-63
2022/05/13 01:53:29;;;;;;;5.37;3.00;;;11.70;99.90;;;;;;5118984;27;20469;-63
2022/05/13 01:56:00;;;;;;;4.83;3.00;;;11.80;99.90;;;;;;5121759;28;20837;-64
2022/05/13 01:58:36;;;;;;;3.50;2.70;;;12.00;99.90;;;;;;5133311;27;20662;-62
2022/05/13 02:01:08;;;;;;;5.60;3.60;;;12.20;99.90;;;;;;5129121;27;20592;-63
2022/05/13 02:03:44;;;;;;;6.73;3.00;;;12.40;99.90;;;;;;5119606;28;20499;-63
2022/05/13 02:06:19;;;;;;;2.53;2.33;;;12.50;99.90;;;;;;5120028;28;20815;-63
2022/05/13 02:08:54;;;;;;;3.47;2.30;;;12.60;99.90;;;;;;5121507;28;20470;-63
2022/05/13 02:11:27;;;;;;;4.10;2.80;;;12.60;99.90;;;;;;5119022;28;20453;-62
2022/05/13 02:13:59;;;;;;;4.27;2.97;;;12.70;99.90;;;;;;5122517;28;20460;-62
2022/05/13 02:16:29;;;;;;;4.30;2.93;;;12.70;99.90;;;;;;5124949;28;20456;-62
2022/05/13 02:19:00;;;;;;;3.80;2.93;;;12.80;99.90;;;;;;5125495;27;20505;-61
2022/05/13 02:21:31;;;;;;;4.67;3.00;;;12.90;99.90;;;;;;5111797;28;20529;-61
2022/05/13 02:24:04;;;;;;;5.23;3.43;;;12.70;99.90;;;;;;5116542;28;20465;-61
2022/05/13 02:26:35;;;;;;;4.70;3.20;;;12.60;99.90;;;;;;5126093;28;20459;-62
2022/05/13 02:29:06;;;;;;;3.13;2.07;;;12.40;99.90;;;;;;5122677;27;20461;-61
2022/05/13 02:31:36;;;;;;;3.60;2.33;;;12.20;99.90;;;;;;5117808;28;20549;-61
2022/05/13 02:34:07;;;;;;;2.43;2.20;;;11.90;99.80;;;;;;5123179;27;20469;-61
2022/05/13 02:36:39;;;;;;;2.57;2.00;;;11.70;99.90;;;;;;5135995;27;20465;-61
2022/05/13 02:39:12;;;;;;;4.43;2.37;;;11.50;99.70;;;;;;5124457;27;20489;-60
2022/05/13 02:41:44;;;;;;;2.40;1.87;;;11.40;99.90;;;;;;5126397;27;20777;-60
2022/05/13 02:44:15;;;;;;;2.80;2.30;;;11.20;99.90;;;;;;5136108;27;20453;-61
2022/05/13 02:46:47;;;;;;;2.43;2.23;;;11.10;99.90;;;;;;5137862;27;20457;-61
2022/05/13 02:49:18;;;;;;;2.90;2.10;;;11.20;99.90;;;;;;5119614;27;20559;-60
2022/05/13 02:51:49;;;;;;;2.70;2.50;;;11.10;99.90;;;;;;5126054;27;20461;-60
2022/05/13 02:54:21;;;;;;;3.60;2.60;;;11.00;99.90;;;;;;5116298;27;20449;-61
2022/05/13 02:56:52;;;;;;;3.30;1.80;;;10.90;99.90;;;;;;5134600;27;20444;-61
2022/05/13 02:59:23;;;;;;;2.50;2.30;;;10.90;99.90;;;;;;5130615;27;20492;-60
2022/05/13 03:01:54;;;;;;;3.13;2.80;;;10.90;99.90;;;;;;5129079;27;20475;-60
2022/05/13 03:04:27;;;;;;;2.30;2.10;;;10.90;99.90;;;;;;5116702;28;20462;-60
2022/05/13 03:06:58;;;;;;;4.13;2.53;;;10.90;99.90;;;;;;5114414;27;20472;-60
2022/05/13 03:09:30;;;;;;;2.83;2.60;;;10.90;99.90;;;;;;5135716;27;20458;-60
2022/05/13 03:12:01;;;;;;;7.13;2.70;;;10.90;99.90;;;;;;5130507;27;20460;-60
2022/05/13 03:14:32;;;;;;;3.83;2.80;;;10.90;99.90;;;;;;5130630;27;20452;-61
2022/05/13 03:17:05;;;;;;;2.90;2.60;;;10.70;99.90;;;;;;5126225;27;20884;-61
2022/05/13 03:19:38;;;;;;;3.40;2.53;;;10.60;99.90;;;;;;5141051;27;20625;-61
2022/05/13 03:22:09;;;;;;;4.13;3.30;;;10.50;99.90;;;;;;5111345;27;20464;-61
2022/05/13 03:24:41;;;;;;;4.20;2.57;;;10.40;99.90;;;;;;5124148;28;20454;-61
2022/05/13 03:27:12;;;;;;;5.77;2.43;;;10.20;99.90;;;;;;5125520;27;20446;-60
2022/05/13 03:29:43;;;;;;;8.43;2.77;;;10.10;99.90;;;;;;5134136;27;20458;-61
2022/05/13 03:32:13;;;;;;;4.00;2.07;;;9.90;99.90;;;;;;5126066;27;20443;-61
2022/05/13 03:34:44;;;;;;;3.90;2.50;;;9.90;99.90;;;;;;5123821;27;20472;-61
2022/05/13 03:37:15;;;;;;;3.63;2.70;;;9.90;99.90;;;;;;5127965;27;20449;-61
2022/05/13 03:39:47;;;;;;;3.43;2.77;;;9.80;99.90;;;;;;5130665;27;20481;-62
2022/05/13 03:42:20;;;;;;;3.10;2.77;;;9.70;99.90;;;;;;5131913;27;20437;-62
2022/05/13 03:44:51;;;;;;;4.23;2.93;;;9.60;99.90;;;;;;5132428;27;20465;-62
2022/05/13 03:47:22;;;;;;;4.40;2.67;;;9.50;99.90;;;;;;5118458;27;20449;-63
2022/05/13 03:49:53;;;;;;;3.47;3.17;;;9.40;99.90;;;;;;5122979;27;20976;-62
2022/05/13 03:52:24;;;;;;;4.00;3.03;;;9.30;99.90;;;;;;5122621;27;20813;-62
2022/05/13 03:54:56;;;;;;;5.97;3.27;;;9.20;99.90;;;;;;5123448;27;20446;-62
2022/05/13 03:57:27;;;;;;;5.55;3.60;;;9.20;99.90;;;;;;5120633;27;20474;-62
2022/05/13 03:59:58;;;;;;;3.40;3.10;;;9.10;99.90;;;;;;5119291;27;20223;-62
2022/05/13 04:02:29;;;;;;;4.80;2.73;;;9.00;99.90;;;;;;5133106;27;20453;-61
2022/05/13 04:10:37;;;;;;;3.50;2.83;;;9.00;99.90;;;;;;5143511;27;20905;-61
2022/05/13 04:16:08;;;;;;;5.60;2.35;;;9.00;99.90;;;;;;5122816;27;20469;-61
2022/05/13 04:18:41;;;;;;;4.50;3.07;;;8.90;99.90;;;;;;5121721;27;20223;-61
2022/05/13 04:21:14;;;;;;;4.50;2.90;;;8.80;99.90;;;;;;5127563;27;20518;-61
2022/05/13 04:23:49;;;;;;;4.50;2.87;;;8.80;99.90;;;;;;5122663;28;20267;-63
2022/05/13 04:26:22;;;;;;;6.50;2.45;;;8.70;99.90;;;;;;5122441;27;20533;-61
2022/05/13 04:28:55;;;;;;;4.18;3.22;;;8.60;99.90;;;;;;5130169;27;20222;-61
2022/05/13 04:31:28;;;;;;;3.60;2.70;;;8.50;99.90;;;;;;5121362;27;20201;-61
2022/05/13 04:34:00;;;;;;;3.78;2.50;;;8.40;99.90;;;;;;5127901;27;20196;-61
2022/05/13 04:36:31;;;;;;;3.63;2.67;;;8.40;99.90;;;;;;5133054;27;20296;-61
2022/05/13 04:39:02;;;;;;;3.95;2.60;;;8.40;99.90;;;;;;5129060;27;20491;-61
2022/05/13 04:44:23;;;;;;;5.05;2.92;;;8.40;99.90;;;;;;5117414;28;20199;-61
2022/05/13 04:46:54;;;;;;;2.95;2.75;;;8.30;99.90;;;;;;5114847;28;20208;-62
2022/05/13 04:49:25;;;;;;;3.10;2.80;;;8.30;99.90;;;;;;5127081;27;20227;-61
2022/05/13 04:51:57;;;;;;;4.55;2.90;;;8.30;99.90;;;;;;5113122;28;20468;-62
2022/05/13 04:54:28;;;;;;;4.90;2.95;;;8.30;99.90;;;;;;5116493;27;20204;-61
2022/05/13 04:57:00;;;;;;;3.38;2.75;;;8.30;99.90;;;;;;5122487;27;20330;-62
2022/05/13 04:59:31;;;;;;;4.18;3.15;;;8.30;99.90;;;;;;5122967;28;20231;-62
2022/05/13 05:02:02;;;;;;;3.37;3.00;;;8.40;99.90;;;;;;5123668;27;20263;-62
2022/05/13 05:04:36;;;;;;;4.97;3.60;;;8.50;99.90;;;;;;5133305;27;20961;-61
2022/05/13 05:07:07;;;;;;;3.55;3.25;;;8.50;99.90;;;;;;5120868;28;20207;-61
2022/05/13 05:09:39;;;;;;;2.90;2.70;;;8.60;99.90;;;;;;5120430;27;20211;-62
2022/05/13 05:12:12;;;;;;;2.50;2.30;;;8.60;99.90;;;;;;5121895;28;20200;-61
2022/05/13 05:14:44;;;;;;;3.58;2.70;;;8.70;99.90;;;;;;5120651;28;20670;-61
2022/05/13 05:17:17;;;;;;;3.97;3.23;;;8.70;99.90;;;;;;5110559;28;20204;-62
2022/05/13 05:19:48;;;;;;;5.03;2.53;;;8.80;99.90;;;;;;5124213;27;20535;-62
2022/05/13 05:22:19;;;;;;;2.80;2.50;;;8.80;99.90;;;;;;5140989;27;20203;-62
2022/05/13 05:24:50;;;;;;;2.43;2.23;;;8.80;99.90;;;;;;5137188;27;20456;-62
2022/05/13 05:27:22;;;;;;;2.50;2.30;;;8.70;99.90;;;;;;5128015;27;20442;-62
2022/05/13 05:29:53;;;;;;;3.45;2.50;;;8.60;99.90;;;;;;5140914;27;20453;-62
2022/05/13 05:32:24;;;;;;;3.08;2.50;;;8.50;99.90;;;;;;5117245;27;20706;-63
2022/05/13 05:35:01;;;;;;;4.40;3.70;;;8.40;99.90;;;;;;5122302;28;20188;-62
2022/05/13 05:37:31;;;;;;;3.25;2.42;;;8.20;99.90;;;;;;5137653;27;20213;-62
2022/05/13 05:40:05;;;;;;;3.60;2.50;;;8.10;99.90;;;;;;5141192;27;20234;-62
2022/05/13 05:42:38;;;;;;;3.27;2.97;;;8.00;99.90;;;;;;5119799;27;20208;-62
2022/05/13 05:45:14;;;;;;;4.00;3.03;;;7.90;99.90;;;;;;5119148;27;20449;-62
2022/05/13 05:47:45;;;;;;;5.18;4.63;;;7.80;99.90;;;;;;5123115;28;20448;-62
2022/05/13 05:50:17;;;;;;;3.42;3.13;;;7.70;99.90;;;;;;5105901;28;20223;-62
2022/05/13 05:52:48;;;;;;;4.78;3.30;;;7.60;99.90;;;;;;5130350;28;20203;-62
2022/05/13 05:58:13;;;;;;;5.15;3.20;;;7.50;99.90;;;;;;5123631;27;20211;-62
2022/05/13 06:00:46;;;;;;;5.07;3.38;;;7.40;99.90;;;;;;5110550;28;20662;-62
2022/05/13 06:03:18;;;;;;;5.93;4.22;;;7.40;99.90;;;;;;5120355;28;20234;-62
2022/05/13 06:05:57;;;;;;;8.48;3.92;;;7.20;99.90;;;;;;5130289;28;20196;-62
2022/05/13 06:08:28;;;;;;;5.95;5.00;;;7.10;99.90;;;;;;5126211;27;20203;-62
2022/05/13 06:10:59;;;;;;;5.05;4.55;;;7.10;99.90;;;;;;5125162;27;20199;-62
2022/05/13 06:13:32;;;;;;;4.32;3.92;;;7.00;99.90;;;;;;5139439;27;20207;-62
2022/05/13 06:16:02;;;;;;;4.10;3.70;;;7.00;99.90;;;;;;5114205;27;20214;-62
2022/05/13 06:18:33;;;;;;;5.43;4.00;;;7.10;99.90;;;;;;5131904;27;20663;-62
2022/05/13 06:21:05;;;;;;;4.00;3.60;;;7.10;99.90;;;;;;5125377;28;20288;-62
2022/05/13 06:23:36;;;;;;;4.03;3.72;;;7.10;99.90;;;;;;5124706;28;20202;-62
2022/05/13 06:26:07;;;;;;;5.00;4.35;;;7.00;99.90;;;;;;5110386;28;20204;-62
2022/05/13 06:28:40;;;;;;;5.80;3.70;;;7.00;99.90;;;;;;5131474;27;20199;-62
2022/05/13 06:31:10;;;;;;;4.95;4.50;;;6.90;99.90;;;;;;5126055;27;20299;-62
2022/05/13 06:33:41;;;;;;;3.67;3.38;;;7.00;99.90;;;;;;5124438;28;20261;-62
2022/05/13 06:36:14;;;;;;;4.18;3.75;;;7.00;99.90;;;;;;5124862;27;20206;-62
2022/05/13 06:38:46;;;;;;;6.57;3.25;;;7.00;99.90;;;;;;5112933;27;20192;-62
2022/05/13 06:41:18;;;;;;;3.50;3.20;;;6.90;99.90;;;;;;5125508;27;20232;-62
2022/05/13 06:43:50;;;;;;;3.90;3.35;;;6.80;99.90;;;;;;5124224;28;20208;-62
2022/05/13 06:46:21;;;;;;;3.97;3.58;;;6.80;99.90;;;;;;5135377;27;20275;-62
2022/05/13 06:48:52;;;;;;;3.58;3.28;;;6.70;99.90;;;;;;5118332;27;20200;-62
2022/05/13 06:51:23;;;;;;;5.05;3.70;;;6.60;99.90;;;;;;5122916;27;20267;-62
2022/05/13 06:53:54;;;;;;;4.47;4.07;;;6.50;99.90;;;;;;5125124;27;20195;-62
2022/05/13 06:56:25;;;;;;;5.78;4.43;;;6.50;99.90;;;;;;5125993;27;20231;-62
2022/05/13 06:58:57;;;;;;;5.22;4.72;;;6.50;99.90;;;;;;5124769;27;20215;-62
2022/05/13 07:01:28;;;;;;;8.63;4.90;;;6.40;99.90;;;;;;5125042;27;20224;-62
2022/05/13 07:03:59;;;;;;;6.47;5.60;;;6.30;99.90;;;;;;5125448;27;20211;-62
2022/05/13 07:06:30;;;;;;;7.00;5.03;;;6.40;99.90;;;;;;5124302;28;20200;-62
2022/05/13 07:09:01;;;;;;;5.60;5.10;;;6.40;99.90;;;;;;5129427;27;20717;-62
2022/05/13 07:11:32;;;;;;;6.93;5.65;;;6.30;99.90;;;;;;5125942;27;20549;-62
2022/05/13 07:14:04;;;;;;;6.80;5.45;;;6.30;99.90;;;;;;5115154;28;20243;-62
2022/05/13 07:16:35;;;;;;;7.40;5.82;;;6.20;99.90;;;;;;5122400;27;20220;-62
2022/05/13 07:19:10;;;;;;;5.15;4.47;;;6.20;99.90;;;;;;5120371;27;20212;-61
2022/05/13 07:21:40;;;;;;;7.22;4.82;;;6.20;99.90;;;;;;5124956;28;20216;-62
2022/05/13 07:24:11;;;;;;;5.70;5.10;;;6.20;99.90;;;;;;5123141;27;20204;-62
2022/05/13 07:26:43;;;;;;;8.40;5.60;;;6.30;99.90;;;;;;5123751;28;20203;-62
2022/05/13 07:29:15;;;;;;;5.35;4.70;;;6.30;99.90;;;;;;5122913;27;20223;-62
2022/05/13 07:31:46;;;;;;;5.75;4.55;;;6.20;99.90;;;;;;5109505;27;20217;-62
2022/05/13 07:34:17;;;;;;;6.45;4.95;;;6.20;99.90;;;;;;5115721;27;20573;-62
2022/05/13 07:36:48;;;;;;;4.63;3.90;;;6.20;99.90;;;;;;5126673;27;20306;-62
2022/05/13 07:42:09;;;;;;;4.85;3.92;;;6.10;99.90;;;;;;5125445;28;20215;-62
2022/05/13 07:44:42;;;;;;;5.72;4.05;;;6.00;99.90;;;;;;5123201;27;20204;-62
2022/05/13 07:47:14;;;;;;;5.75;4.50;;;6.00;99.90;;;;;;5119505;27;20196;-62
2022/05/13 07:49:45;;;;;;;4.50;4.05;;;5.80;99.90;;;;;;5123823;27;20239;-62
2022/05/13 07:52:15;;;;;;;4.75;3.67;;;5.90;99.90;;;;;;5124432;28;20188;-62
2022/05/13 07:54:46;;;;;;;6.95;4.30;;;5.80;99.90;;;;;;5122764;28;20211;-62
2022/05/13 07:57:17;;;;;;;10.35;5.57;;;5.80;99.90;;;;;;5123913;27;20207;-62
2022/05/13 08:02:46;;;;;;;6.28;3.78;;;5.80;99.90;;;;;;5055346;28;20213;-62
2022/05/13 08:05:16;;;;;;;5.88;4.43;;;5.70;99.90;;;;;;5057011;28;20212;-62
2022/05/13 08:07:47;;;;;;;6.28;4.72;;;5.70;99.90;;;;;;5081222;28;20204;-62
2022/05/13 08:10:18;;;;;;;9.10;4.70;;;5.60;99.90;;;;;;5063173;28;20217;-62
2022/05/13 08:12:49;;;;;;;7.22;4.00;;;5.50;99.90;;;;;;5069088;28;20201;-62
2022/05/13 08:15:21;;;;;;;5.60;4.00;;;5.50;99.90;;;;;;5060967;28;20214;-62
2022/05/13 08:17:52;;;;;;;4.40;4.00;;;5.40;99.90;;;;;;5058185;28;20209;-62
2022/05/13 08:20:24;;;;;;;6.28;4.57;;;5.40;99.90;;;;;;5068402;28;20331;-62
2022/05/13 08:22:55;;;;;;;5.00;4.28;;;5.30;99.90;;;;;;5059358;28;20408;-62
2022/05/13 08:25:26;;;;;;;4.80;4.30;;;5.30;99.90;;;;;;5059993;28;20198;-62
2022/05/13 08:27:57;;;;;;;7.78;4.30;;;5.40;99.90;;;;;;5057276;28;20313;-62
2022/05/13 08:30:29;;;;;;;5.53;4.28;;;5.30;99.90;;;;;;5062881;28;20301;-62
2022/05/13 08:33:02;;;;;;;5.40;4.32;;;5.30;99.90;;;;;;5075630;28;20213;-61
2022/05/13 08:35:33;;;;;;;5.63;4.50;;;5.30;99.90;;;;;;5062064;28;20206;-62
2022/05/13 08:38:06;;;;;;;4.28;3.85;;;5.30;99.90;;;;;;5086341;27;20245;-62
2022/05/13 08:40:59;;;;;;;5.85;4.85;;;5.30;99.90;;;;;;5125589;27;20234;-62
2022/05/13 08:43:35;;;;;;;4.47;3.80;;;5.40;99.90;;;;;;5126318;27;20191;-62
2022/05/13 08:46:14;;;;;;;5.70;4.80;;;5.40;99.90;;;;;;5123506;28;20208;-62
2022/05/13 08:48:54;;;;;;;5.78;4.05;;;5.50;99.90;;;;;;5122907;27;20239;-62
2022/05/13 08:51:49;;;;;;;5.93;4.85;;;5.50;99.90;;;;;;5131384;27;20214;-62
2022/05/13 08:54:23;;;;;;;6.28;4.90;;;5.50;99.90;;;;;;5109293;28;20230;-62
2022/05/13 08:56:57;;;;;;;5.30;4.60;;;5.40;99.90;;;;;;5109557;27;20207;-62
2022/05/13 08:59:33;;;;;;;7.95;4.63;;;5.50;99.90;;;;;;5120429;27;20286;-62
2022/05/13 09:02:10;;;;;;;5.90;4.32;;;5.40;99.90;;;;;;5114720;28;20227;-62
2022/05/13 09:04:45;;;;;;;6.22;5.10;;;5.50;99.90;;;;;;5124929;27;20214;-62
2022/05/13 09:07:17;;;;;;;5.90;4.55;;;5.40;99.90;;;;;;5126366;27;20204;-61
2022/05/13 09:09:57;;;;;;;4.97;4.50;;;5.40;99.90;;;;;;5127836;27;20202;-62
2022/05/13 09:12:34;;;;;;;5.90;4.72;;;5.30;99.90;;;;;;5120841;27;20678;-62
2022/05/13 09:15:11;;;;;;;7.22;5.47;;;5.30;99.90;;;;;;5128337;27;20203;-62
2022/05/13 09:17:56;;;;;;;6.03;4.65;;;5.30;99.90;;;;;;5122011;28;20529;-62
2022/05/13 09:20:28;;;;;;;4.50;4.10;;;5.30;99.90;;;;;;5136567;27;20205;-62
2022/05/13 09:23:00;;;;;;;5.20;4.00;;;5.30;99.90;;;;;;5114548;28;20234;-62
2022/05/13 09:25:38;;;;;;;5.93;4.50;;;5.30;99.90;;;;;;5120139;27;20196;-62
2022/05/13 09:28:12;;;;;;;5.15;3.95;;;5.30;99.90;;;;;;5122389;27;20549;-62
2022/05/13 09:30:46;;;;;;;5.25;4.50;;;5.30;99.90;;;;;;5128281;27;20204;-62
2022/05/13 09:33:24;;;;;;;4.78;3.88;;;5.20;99.90;;;;;;5120758;27;20523;-61
2022/05/13 09:35:57;;;;;;;6.97;4.22;;;5.10;99.90;;;;;;5115741;27;20200;-62
2022/05/13 09:38:32;;;;;;;4.30;3.90;;;5.10;99.90;;;;;;5120140;28;20592;-62
2022/05/13 09:41:05;;;;;;;5.30;4.15;;;5.00;99.90;;;;;;5128910;27;20207;-62
2022/05/13 09:43:39;;;;;;;6.53;4.47;;;4.90;99.90;;;;;;5121132;28;20298;-62
2022/05/13 09:46:12;;;;;;;7.15;4.95;;;4.90;99.90;;;;;;5123006;28;20214;-62
2022/05/13 09:49:01;;;;;;;6.57;4.72;;;4.80;99.90;;;;;;5121136;28;20225;-62
2022/05/13 09:51:37;;;;;;;5.80;4.88;;;4.80;99.90;;;;;;5117032;28;20212;-62
2022/05/13 09:54:15;;;;;;;8.57;5.28;;;4.80;99.90;;;;;;5108555;28;20208;-63
2022/05/13 09:56:49;;;;;;;5.80;4.28;;;4.80;99.90;;;;;;5119933;28;20237;-62
2022/05/13 09:59:24;;;;;;;6.28;4.72;;;4.80;99.90;;;;;;5127866;28;20277;-62
2022/05/13 10:01:55;;;;;;;6.70;5.25;;;4.80;99.90;;;;;;5122293;28;20231;-62
2022/05/13 10:04:29;;;;;;;5.82;5.05;;;4.80;99.90;;;;;;5120886;28;20218;-62
2022/05/13 10:07:06;;;;;;;9.38;5.57;;;4.70;99.90;;;;;;5120691;28;20208;-62
2022/05/13 10:15:28;;;;;;;5.50;4.15;;;4.50;99.90;;;;;;5113449;28;20248;-61
2022/05/13 10:18:09;;;;;;;5.53;4.30;;;4.60;99.90;;;;;;5119158;28;20206;-62
2022/05/13 10:20:45;;;;;;;6.82;4.47;;;4.50;99.90;;;;;;5120387;28;20218;-62
2022/05/13 10:23:24;;;;;;;7.70;4.82;;;4.40;99.90;;;;;;5121367;28;20235;-62
2022/05/13 10:25:58;;;;;;;5.80;4.88;;;4.40;99.90;;;;;;5129579;28;20208;-62
2022/05/13 10:28:39;;;;;;;8.38;5.63;;;4.40;99.90;;;;;;5120155;28;20203;-61
2022/05/13 10:31:15;;;;;;;4.55;3.55;;;4.40;99.90;;;;;;5111122;28;20200;-62
2022/05/13 10:33:55;;;;;;;4.45;4.05;;;4.40;99.90;;;;;;5117120;28;20204;-62
2022/05/13 10:36:36;;;;;;;5.70;4.15;;;4.40;99.90;;;;;;5120841;28;20200;-61
2022/05/13 10:39:11;;;;;;;8.63;5.60;;;4.40;99.90;;;;;;5115766;28;20200;-61
2022/05/13 10:41:47;;;;;;;4.57;4.13;;;4.30;99.90;;;;;;5121730;28;20227;-62
2022/05/13 10:44:22;;;;;;;7.50;4.82;;;4.40;99.90;;;;;;5117510;28;20203;-62
2022/05/13 10:46:55;;;;;;;5.40;4.22;;;4.40;99.90;;;;;;5123153;28;20209;-61
2022/05/13 10:49:40;;;;;;;5.15;4.68;;;4.40;99.90;;;;;;5117801;28;20228;-62
2022/05/13 10:52:23;;;;;;;11.55;6.43;;;4.40;99.90;;;;;;5109102;28;20750;-61
2022/05/13 10:54:58;;;;;;;6.70;4.40;;;4.40;99.90;;;;;;5117025;28;20217;-61
2022/05/13 10:57:39;;;;;;;7.18;5.18;;;4.40;99.90;;;;;;5117344;28;20187;-62
2022/05/13 11:00:15;;;;;;;6.95;4.88;;;4.30;99.90;;;;;;5136174;27;20227;-62
2022/05/13 11:03:15;;;;;;;8.25;4.25;;;4.30;99.90;;;;;;5124799;27;20449;-62
2022/05/13 11:06:00;;;;;;;5.70;4.65;;;4.30;99.90;;;;;;5117353;28;20280;-62
2022/05/13 11:08:45;;;;;;;8.00;4.78;;;4.30;99.90;;;;;;5122637;27;20252;-62
2022/05/13 11:11:28;;;;;;;6.25;4.72;;;4.30;99.90;;;;;;5133686;27;21063;-62
2022/05/13 11:14:11;;;;;;;7.68;5.05;;;4.30;99.90;;;;;;5119763;27;20227;-62
2022/05/13 11:16:51;;;;;;;9.57;4.95;;;4.30;99.90;;;;;;5119009;28;20234;-62
2022/05/13 11:19:34;;;;;;;6.85;5.00;;;4.20;99.90;;;;;;5123156;27;20211;-62
2022/05/13 11:22:14;;;;;;;10.93;6.15;;;4.20;99.90;;;;;;5118363;28;20287;-62
2022/05/13 11:28:11;;;;;;;7.95;5.68;;;4.20;99.90;;;;;;5103287;28;20200;-62
2022/05/13 11:30:47;;;;;;;5.82;4.70;;;4.10;99.90;;;;;;5117000;27;20209;-62
2022/05/13 11:33:30;;;;;;;8.55;5.68;;;4.10;99.90;;;;;;5112715;28;20211;-62
2022/05/13 11:36:25;;;;;;;6.32;5.00;;;4.10;99.90;;;;;;5121897;28;20207;-62
2022/05/13 11:39:23;;;;;;;6.78;5.95;;;4.10;99.90;;;;;;5122246;27;20208;-62
2022/05/13 11:42:16;;;;;;;7.78;4.78;;;4.00;99.90;;;;;;5114028;27;20211;-62
2022/05/13 11:44:57;;;;;;;9.75;4.35;;;3.90;99.90;;;;;;5123425;28;20208;-62
2022/05/13 11:47:40;;;;;;;6.68;4.65;;;3.80;99.90;;;;;;5123761;27;20211;-62
2022/05/13 11:50:12;;;;;;;5.60;4.65;;;3.80;99.90;;;;;;5128800;27;20228;-62
2022/05/13 11:52:49;;;;;;;9.02;5.50;;;3.80;99.90;;;;;;5121482;27;20208;-62
2022/05/13 11:55:23;;;;;;;8.63;5.20;;;3.70;99.90;;;;;;5124876;27;20293;-62
2022/05/13 11:57:56;;;;;;;6.82;5.60;;;3.70;99.90;;;;;;5123081;27;20557;-62
2022/05/13 12:00:40;;;;;;;10.43;6.43;;;3.70;99.90;;;;;;5122895;28;20204;-62
2022/05/13 12:03:19;;;;;;;8.50;5.00;;;3.80;99.90;;;;;;5123206;27;20231;-62
2022/05/13 12:06:08;;;;;;;7.93;5.95;;;3.70;99.90;;;;;;5123062;27;20227;-62
2022/05/13 12:08:46;;;;;;;7.80;5.57;;;3.60;99.90;;;;;;5122179;27;20212;-62
2022/05/13 12:11:38;;;;;;;7.60;4.97;;;3.50;99.90;;;;;;5123514;27;20199;-62
2022/05/13 12:14:19;;;;;;;7.20;5.80;;;3.60;99.90;;;;;;5113178;28;20273;-62
2022/05/13 12:16:58;;;;;;;6.88;5.65;;;3.60;99.90;;;;;;5135409;27;20213;-62
2022/05/13 12:19:39;;;;;;;6.50;5.22;;;3.60;99.90;;;;;;5118827;28;20200;-62
2022/05/13 12:22:22;;;;;;;11.23;5.20;;;3.60;99.90;;;;;;5116797;27;20204;-62
2022/05/13 12:24:59;;;;;;;8.15;5.68;;;3.60;99.90;;;;;;5117099;28;20219;-62
2022/05/13 12:27:41;;;;;;;6.20;4.70;;;3.60;99.90;;;;;;5125451;27;20207;-62
2022/05/13 12:30:32;;;;;;;8.32;5.65;;;3.50;99.90;;;;;;5122867;27;20215;-62
2022/05/13 12:33:35;;;;;;;7.90;5.60;;;3.60;99.90;;;;;;5118485;28;20208;-62
2022/05/13 12:39:22;;;;;;;9.43;5.50;;;3.60;99.90;;;;;;5122272;27;20249;-62
2022/05/13 12:42:09;;;;;;;8.52;5.00;;;3.50;99.90;;;;;;5117939;28;20200;-62
2022/05/13 12:44:58;;;;;;;7.80;5.75;;;3.50;99.90;;;;;;5133764;27;20209;-62
2022/05/13 12:47:32;;;;;;;7.72;5.80;;;3.50;99.90;;;;;;5123586;27;20203;-62
2022/05/13 12:50:28;;;;;;;13.10;6.05;;;3.50;99.90;;;;;;5121732;27;20231;-62
2022/05/13 12:52:59;;;;;;;9.48;5.40;;;3.50;99.90;;;;;;5122450;27;20211;-62
2022/05/13 12:55:50;;;;;;;7.65;4.88;;;3.50;99.90;;;;;;5134683;27;20267;-62
2022/05/13 12:58:21;;;;;;;6.05;5.43;;;3.50;99.90;;;;;;5122737;28;20214;-62
2022/05/13 13:00:54;;;;;;;6.63;5.55;;;3.50;99.90;;;;;;5119088;27;20210;-62
2022/05/13 13:03:28;;;;;;;8.18;5.10;;;3.50;99.90;;;;;;5118387;27;20234;-62
2022/05/13 13:06:02;;;;;;;10.57;5.35;;;3.50;99.90;;;;;;5131549;27;20256;-62
2022/05/13 13:08:36;;;;;;;5.97;5.28;;;3.60;99.90;;;;;;5114290;28;20196;-62
2022/05/13 13:11:17;;;;;;;6.50;5.10;;;3.50;99.90;;;;;;5136034;27;20220;-62
2022/05/13 13:13:54;;;;;;;7.28;5.68;;;3.50;99.90;;;;;;5131360;27;20208;-62
2022/05/13 13:16:43;;;;;;;8.27;6.22;;;3.50;99.90;;;;;;5121915;28;20272;-62
2022/05/13 13:19:19;;;;;;;10.45;5.60;;;3.70;99.90;;;;;;5113113;27;20209;-62
2022/05/13 13:21:55;;;;;;;7.28;5.90;;;3.80;99.90;;;;;;5111721;27;20200;-62
2022/05/13 13:24:30;;;;;;;7.70;5.20;;;3.80;99.90;;;;;;5102931;27;20231;-62
2022/05/13 13:27:01;;;;;;;7.28;5.60;;;3.80;99.90;;;;;;5115982;27;20287;-62
2022/05/13 13:29:34;;;;;;;8.40;6.43;;;3.80;99.90;;;;;;5116201;28;20200;-62
2022/05/13 13:32:08;;;;;;;8.23;6.50;;;3.90;99.90;;;;;;5120147;27;20204;-62
2022/05/13 13:34:50;;;;;;;6.00;5.40;;;4.10;99.90;;;;;;5128594;27;20256;-62
2022/05/13 13:37:23;;;;;;;8.30;5.55;;;4.20;99.90;;;;;;5128027;27;20294;-62
2022/05/13 13:39:57;;;;;;;8.30;5.93;;;4.30;99.90;;;;;;5112958;28;20208;-62
2022/05/13 13:42:35;;;;;;;7.70;5.70;;;4.40;99.90;;;;;;5113256;28;20218;-62
2022/05/13 13:45:09;;;;;;;7.38;5.95;;;4.50;99.90;;;;;;5122248;28;20298;-62
2022/05/13 13:47:44;;;;;;;9.32;6.03;;;4.50;99.90;;;;;;5120865;27;20207;-62
2022/05/13 13:50:21;;;;;;;6.90;6.20;;;4.60;99.90;;;;;;5114648;28;20234;-62
2022/05/13 13:52:52;;;;;;;7.05;6.32;;;4.80;99.90;;;;;;5122915;27;20203;-62
2022/05/13 13:55:26;;;;;;;7.93;5.90;;;4.90;99.90;;;;;;5112430;28;20679;-62
2022/05/13 13:58:20;;;;;;;8.80;6.60;;;5.10;99.90;;;;;;5123489;28;20218;-61
2022/05/13 14:00:52;;;;;;;7.25;6.18;;;5.30;99.90;;;;;;5121346;28;20205;-62
2022/05/13 14:03:26;;;;;;;8.02;6.38;;;5.50;99.90;;;;;;5124220;28;20207;-62
2022/05/13 14:06:00;;;;;;;10.55;6.82;;;5.70;99.90;;;;;;5127728;28;20195;-62